Terminal Aerodrome Forecast
Issued by NWS Wilmington, OH

Current Version | Previous Version | Text Only | Print | Product List | Glossary Off
Versions: 1 2 3 4 5 6 7 8 9 10 11 12 13 14 15 16 17 18 19 20 21 22 23 24 25 26 27

000
FTUS41 KILN 171138
TAFILN
TAF
KILN 171138Z 1712/1812 20012G18KT P6SM VCSH SCT012 OVC025
      TEMPO 1712/1716 5SM -SHRA BR OVC012
     FM171600 23014G22KT P6SM OVC013
     FM171800 25014G22KT P6SM OVC025
     FM180000 26012G18KT P6SM OVC011
     FM180400 26010KT P6SM OVC009=

USA.gov is the U.S. government's official web portal to all federal, state and local government web resources and services.